sensor_id;sensor_type;location;lat;lon;timestamp;pressure;altitude;pressure_sealevel;temperature;humidity
78584;BME280;67880;46.082;18.234;2023-12-28T00:00:14;100524.66;;;5.86;90.65
78584;BME280;67880;46.082;18.234;2023-12-28T00:00:46;100527.19;;;5.88;90.15
78584;BME280;67880;46.082;18.234;2023-12-28T00:01:18;100525.28;;;5.90;90.61
78584;BME280;67880;46.082;18.234;2023-12-28T00:01:50;100525.28;;;5.90;90.79
78584;BME280;67880;46.082;18.234;2023-12-28T00:02:22;100528.78;;;5.90;90.64
78584;BME280;67880;46.082;18.234;2023-12-28T00:02:54;100527.84;;;5.91;90.54
78584;BME280;67880;46.082;18.234;2023-12-28T00:03:26;100522.72;;;5.88;90.53
78584;BME280;67880;46.082;18.234;2023-12-28T00:03:58;100524.66;;;5.86;90.51
78584;BME280;67880;46.082;18.234;2023-12-28T00:04:30;100526.66;;;5.83;90.80
78584;BME280;67880;46.082;18.234;2023-12-28T00:05:05;100525.09;;;5.80;91.10
78584;BME280;67880;46.082;18.234;2023-12-28T00:05:37;100519.94;;;5.77;91.61
78584;BME280;67880;46.082;18.234;2023-12-28T00:06:09;100520.06;;;5.76;91.30
78584;BME280;67880;46.082;18.234;2023-12-28T00:06:42;100520.25;;;5.72;91.31
78584;BME280;67880;46.082;18.234;2023-12-28T00:07:14;100526.44;;;5.73;91.86
78584;BME280;67880;46.082;18.234;2023-12-28T00:07:46;100522.00;;;5.74;91.22
78584;BME280;67880;46.082;18.234;2023-12-28T00:08:18;100528.78;;;5.78;91.11
78584;BME280;67880;46.082;18.234;2023-12-28T00:08:50;100519.94;;;5.77;91.15
78584;BME280;67880;46.082;18.234;2023-12-28T00:09:35;100516.31;;;5.78;91.05
78584;BME280;67880;46.082;18.234;2023-12-28T00:10:07;100527.84;;;5.79;91.67
78584;BME280;67880;46.082;18.234;2023-12-28T00:10:39;100521.66;;;5.78;91.42
78584;BME280;67880;46.082;18.234;2023-12-28T00:11:11;100521.78;;;5.77;91.27
78584;BME280;67880;46.082;18.234;2023-12-28T00:11:43;100523.03;;;5.71;91.66
78584;BME280;67880;46.082;18.234;2023-12-28T00:12:15;100526.38;;;5.75;91.45
78584;BME280;67880;46.082;18.234;2023-12-28T00:12:47;100528.91;;;5.76;91.46
78584;BME280;67880;46.082;18.234;2023-12-28T00:13:19;100527.09;;;5.77;91.51
78584;BME280;67880;46.082;18.234;2023-12-28T00:13:51;100524.44;;;5.77;91.13
78584;BME280;67880;46.082;18.234;2023-12-28T00:14:23;100521.66;;;5.78;91.49
78584;BME280;67880;46.082;18.234;2023-12-28T00:14:56;100517.19;;;5.79;91.60
78584;BME280;67880;46.082;18.234;2023-12-28T00:15:27;100524.44;;;5.77;91.74
78584;BME280;67880;46.082;18.234;2023-12-28T00:15:59;100521.03;;;5.75;91.45
78584;BME280;67880;46.082;18.234;2023-12-28T00:16:32;100514.31;;;5.69;91.75
78584;BME280;67880;46.082;18.234;2023-12-28T00:17:04;100522.31;;;5.69;92.38
78584;BME280;67880;46.082;18.234;2023-12-28T00:17:38;100524.25;;;5.67;92.29
78584;BME280;67880;46.082;18.234;2023-12-28T00:18:10;100524.25;;;5.67;92.49
78584;BME280;67880;46.082;18.234;2023-12-28T00:18:43;100522.00;;;5.61;92.11
78584;BME280;67880;46.082;18.234;2023-12-28T00:19:15;100528.06;;;5.63;92.58
78584;BME280;67880;46.082;18.234;2023-12-28T00:19:47;100523.81;;;5.60;92.64
78584;BME280;67880;46.082;18.234;2023-12-28T00:20:19;100530.19;;;5.58;92.81
78584;BME280;67880;46.082;18.234;2023-12-28T00:20:52;100524.00;;;5.57;92.80
78584;BME280;67880;46.082;18.234;2023-12-28T00:21:24;100527.31;;;5.61;92.84
78584;BME280;67880;46.082;18.234;2023-12-28T00:21:56;100526.56;;;5.59;92.80
78584;BME280;67880;46.082;18.234;2023-12-28T00:22:28;100518.56;;;5.59;92.47
78584;BME280;67880;46.082;18.234;2023-12-28T00:23:00;100521.22;;;5.59;92.43
78584;BME280;67880;46.082;18.234;2023-12-28T00:23:32;100526.56;;;5.59;92.38
78584;BME280;67880;46.082;18.234;2023-12-28T00:24:04;100522.19;;;5.58;92.93
78584;BME280;67880;46.082;18.234;2023-12-28T00:24:36;100522.31;;;5.56;92.55
78584;BME280;67880;46.082;18.234;2023-12-28T00:25:08;100520.69;;;5.54;93.05
78584;BME280;67880;46.082;18.234;2023-12-28T00:25:40;100524.13;;;5.56;92.28
78584;BME280;67880;46.082;18.234;2023-12-28T00:26:13;100522.84;;;5.49;92.58
78584;BME280;67880;46.082;18.234;2023-12-28T00:26:45;100527.41;;;5.47;92.87
78584;BME280;67880;46.082;18.234;2023-12-28T00:27:17;100527.75;;;5.42;93.30
78584;BME280;67880;46.082;18.234;2023-12-28T00:27:49;100526.03;;;5.41;93.32
78584;BME280;67880;46.082;18.234;2023-12-28T00:28:21;100528.69;;;5.41;93.45
78584;BME280;67880;46.082;18.234;2023-12-28T00:28:53;100525.06;;;5.42;93.00
78584;BME280;67880;46.082;18.234;2023-12-28T00:29:25;100519.75;;;5.42;92.92
78584;BME280;67880;46.082;18.234;2023-12-28T00:29:57;100520.59;;;5.42;93.39
78584;BME280;67880;46.082;18.234;2023-12-28T00:30:28;100523.81;;;5.48;93.03
78584;BME280;67880;46.082;18.234;2023-12-28T00:31:00;100525.50;;;5.49;93.13
78584;BME280;67880;46.082;18.234;2023-12-28T00:31:33;100521.75;;;5.51;92.95
78584;BME280;67880;46.082;18.234;2023-12-28T00:32:05;100519.09;;;5.51;93.03
78584;BME280;67880;46.082;18.234;2023-12-28T00:32:37;100514.75;;;5.50;93.13
78584;BME280;67880;46.082;18.234;2023-12-28T00:33:10;100521.75;;;5.51;93.09
78584;BME280;67880;46.082;18.234;2023-12-28T00:33:42;100521.03;;;5.49;92.68
78584;BME280;67880;46.082;18.234;2023-12-28T00:34:14;100523.81;;;5.48;92.83
78584;BME280;67880;46.082;18.234;2023-12-28T00:34:46;100514.94;;;5.47;93.30
78584;BME280;67880;46.082;18.234;2023-12-28T00:35:18;100514.00;;;5.48;93.09
78584;BME280;67880;46.082;18.234;2023-12-28T00:35:50;100523.69;;;5.49;93.18
78584;BME280;67880;46.082;18.234;2023-12-28T00:36:22;100525.50;;;5.49;93.45
78584;BME280;67880;46.082;18.234;2023-12-28T00:36:55;100521.88;;;5.50;93.66
78584;BME280;67880;46.082;18.234;2023-12-28T00:37:27;100518.38;;;5.49;93.50
78584;BME280;67880;46.082;18.234;2023-12-28T00:37:58;100515.72;;;5.49;93.02
78584;BME280;67880;46.082;18.234;2023-12-28T00:39:05;100520.19;;;5.49;93.62
78584;BME280;67880;46.082;18.234;2023-12-28T00:39:40;100512.28;;;5.47;93.70
78584;BME280;67880;46.082;18.234;2023-12-28T00:40:13;100516.75;;;5.47;93.67
78584;BME280;67880;46.082;18.234;2023-12-28T00:40:45;100516.97;;;5.43;93.64
78584;BME280;67880;46.082;18.234;2023-12-28T00:41:17;100520.59;;;5.42;93.74
78584;BME280;67880;46.082;18.234;2023-12-28T00:41:48;100517.16;;;5.40;94.00
78584;BME280;67880;46.082;18.234;2023-12-28T00:42:54;100512.06;;;5.37;94.26
78584;BME280;67880;46.082;18.234;2023-12-28T00:43:26;100518.47;;;5.35;94.03
78584;BME280;67880;46.082;18.234;2023-12-28T00:43:58;100520.38;;;5.33;93.81
78584;BME280;67880;46.082;18.234;2023-12-28T00:44:29;100529.53;;;5.29;94.59
78584;BME280;67880;46.082;18.234;2023-12-28T00:45:02;100527.63;;;5.31;94.63
78584;BME280;67880;46.082;18.234;2023-12-28T00:45:34;100518.56;;;5.33;94.35
78584;BME280;67880;46.082;18.234;2023-12-28T00:46:06;100513.22;;;5.33;94.41
78584;BME280;67880;46.082;18.234;2023-12-28T00:46:38;100515.81;;;5.35;94.09
78584;BME280;67880;46.082;18.234;2023-12-28T00:47:10;100515.03;;;5.33;94.31
78584;BME280;67880;46.082;18.234;2023-12-28T00:47:43;100518.66;;;5.32;94.37
78584;BME280;67880;46.082;18.234;2023-12-28T00:48:15;100516.00;;;5.32;94.88
78584;BME280;67880;46.082;18.234;2023-12-28T00:48:47;100515.25;;;5.30;95.01
78584;BME280;67880;46.082;18.234;2023-12-28T00:49:55;100509.28;;;5.26;94.69
78584;BME280;67880;46.082;18.234;2023-12-28T00:50:27;100518.03;;;5.28;94.59
78584;BME280;67880;46.082;18.234;2023-12-28T00:51:07;100511.31;;;5.23;95.29
78584;BME280;67880;46.082;18.234;2023-12-28T00:51:42;100510.25;;;5.25;94.79
78584;BME280;67880;46.082;18.234;2023-12-28T00:52:15;100509.50;;;5.23;95.30
78584;BME280;67880;46.082;18.234;2023-12-28T00:52:47;100512.16;;;5.23;94.72
78584;BME280;67880;46.082;18.234;2023-12-28T00:53:19;100518.34;;;5.24;95.09
78584;BME280;67880;46.082;18.234;2023-12-28T00:54:59;100521.13;;;5.22;95.07
78584;BME280;67880;46.082;18.234;2023-12-28T00:55:31;100518.63;;;5.19;94.71
78584;BME280;67880;46.082;18.234;2023-12-28T00:56:03;100510.78;;;5.18;94.86
78584;BME280;67880;46.082;18.234;2023-12-28T00:56:35;100516.28;;;5.14;94.77
78584;BME280;67880;46.082;18.234;2023-12-28T00:57:07;100508.41;;;5.13;95.00
78584;BME280;67880;46.082;18.234;2023-12-28T00:57:39;100512.88;;;5.12;95.45
78584;BME280;67880;46.082;18.234;2023-12-28T00:58:11;100517.13;;;5.15;95.39
78584;BME280;67880;46.082;18.234;2023-12-28T00:58:43;100521.53;;;5.16;95.37
78584;BME280;67880;46.082;18.234;2023-12-28T00:59:16;100518.88;;;5.16;95.03
78584;BME280;67880;46.082;18.234;2023-12-28T00:59:50;100518.31;;;5.11;95.59
78584;BME280;67880;46.082;18.234;2023-12-28T01:00:22;100526.41;;;5.09;94.96
78584;BME280;67880;46.082;18.234;2023-12-28T01:00:54;100522.91;;;5.09;95.34
78584;BME280;67880;46.082;18.234;2023-12-28T01:01:28;100526.31;;;5.11;95.76
78584;BME280;67880;46.082;18.234;2023-12-28T01:02:02;100521.09;;;5.09;95.60
78584;BME280;67880;46.082;18.234;2023-12-28T01:02:34;100525.44;;;5.10;95.01
78584;BME280;67880;46.082;18.234;2023-12-28T01:03:06;100522.25;;;5.05;95.39
78584;BME280;67880;46.082;18.234;2023-12-28T01:03:38;100521.50;;;5.03;95.85
78584;BME280;67880;46.082;18.234;2023-12-28T01:04:10;100524.03;;;5.05;95.91
78584;BME280;67880;46.082;18.234;2023-12-28T01:04:43;100525.84;;;5.04;95.94
78584;BME280;67880;46.082;18.234;2023-12-28T01:05:15;100522.75;;;4.98;95.93
78584;BME280;67880;46.082;18.234;2023-12-28T01:05:47;100525.41;;;4.98;96.18
78584;BME280;67880;46.082;18.234;2023-12-28T01:06:22;100520.22;;;4.96;96.04
78584;BME280;67880;46.082;18.234;2023-12-28T01:06:59;100520.41;;;4.93;96.31
78584;BME280;67880;46.082;18.234;2023-12-28T01:07:33;100521.66;;;4.87;96.14
78584;BME280;67880;46.082;18.234;2023-12-28T01:08:06;100521.88;;;4.84;96.62
78584;BME280;67880;46.082;18.234;2023-12-28T01:08:38;100518.13;;;4.87;96.55
78584;BME280;67880;46.082;18.234;2023-12-28T01:09:10;100523.34;;;4.88;96.59
78584;BME280;67880;46.082;18.234;2023-12-28T01:09:42;100517.72;;;4.93;96.44
78584;BME280;67880;46.082;18.234;2023-12-28T01:10:14;100521.97;;;4.96;96.01
78584;BME280;67880;46.082;18.234;2023-12-28T01:10:46;100514.97;;;4.95;96.51
78584;BME280;67880;46.082;18.234;2023-12-28T01:11:18;100526.38;;;4.97;96.38
78584;BME280;67880;46.082;18.234;2023-12-28T01:11:50;100519.25;;;4.97;96.17
78584;BME280;67880;46.082;18.234;2023-12-28T01:12:22;100518.28;;;4.98;95.75
78584;BME280;67880;46.082;18.234;2023-12-28T01:12:54;100525.41;;;4.98;96.04
78584;BME280;67880;46.082;18.234;2023-12-28T01:13:28;100514.97;;;4.95;96.39
78584;BME280;67880;46.082;18.234;2023-12-28T01:14:00;100521.13;;;4.95;96.18
78584;BME280;67880;46.082;18.234;2023-12-28T01:14:32;100529.03;;;4.97;96.45
78584;BME280;67880;46.082;18.234;2023-12-28T01:15:04;100527.22;;;4.97;95.99
78584;BME280;67880;46.082;18.234;2023-12-28T01:15:36;100517.72;;;4.93;96.68
78584;BME280;67880;46.082;18.234;2023-12-28T01:16:08;100524.31;;;4.87;96.48
78584;BME280;67880;46.082;18.234;2023-12-28T01:16:40;100514.50;;;4.88;96.94
78584;BME280;67880;46.082;18.234;2023-12-28T01:17:12;100519.94;;;4.86;96.67
78584;BME280;67880;46.082;18.234;2023-12-28T01:17:44;100530.47;;;4.88;96.76
78584;BME280;67880;46.082;18.234;2023-12-28T01:18:16;100526.88;;;4.89;96.52
78584;BME280;67880;46.082;18.234;2023-12-28T01:18:49;100520.41;;;4.93;96.82
78584;BME280;67880;46.082;18.234;2023-12-28T01:19:21;100522.94;;;4.95;96.34
78584;BME280;67880;46.082;18.234;2023-12-28T01:20:28;100521.06;;;4.97;96.54
78584;BME280;67880;46.082;18.234;2023-12-28T01:21:00;100524.75;;;4.94;96.16
78584;BME280;67880;46.082;18.234;2023-12-28T01:21:32;100520.50;;;4.92;96.61
78584;BME280;67880;46.082;18.234;2023-12-28T01:22:04;100517.09;;;4.89;96.63
78584;BME280;67880;46.082;18.234;2023-12-28T01:22:36;100522.09;;;4.94;96.34
78584;BME280;67880;46.082;18.234;2023-12-28T01:23:08;100522.22;;;4.93;96.01
78584;BME280;67880;46.082;18.234;2023-12-28T01:23:40;100524.66;;;4.96;96.30
78584;BME280;67880;46.082;18.234;2023-12-28T01:24:12;100521.97;;;4.96;96.14
78584;BME280;67880;46.082;18.234;2023-12-28T01:24:47;100520.69;;;4.88;96.20
78584;BME280;67880;46.082;18.234;2023-12-28T01:25:21;100519.53;;;4.93;96.28
78584;BME280;67880;46.082;18.234;2023-12-28T01:25:55;100521.34;;;4.92;96.22
78584;BME280;67880;46.082;18.234;2023-12-28T01:26:28;100524.75;;;4.94;96.42
78584;BME280;67880;46.082;18.234;2023-12-28T01:27:00;100525.16;;;4.88;96.34
78584;BME280;67880;46.082;18.234;2023-12-28T01:27:32;100526.00;;;4.88;96.05
78584;BME280;67880;46.082;18.234;2023-12-28T01:28:04;100524.19;;;4.89;96.67
78584;BME280;67880;46.082;18.234;2023-12-28T01:28:36;100525.09;;;4.89;96.31
78584;BME280;67880;46.082;18.234;2023-12-28T01:29:10;100519.75;;;4.89;96.16
78584;BME280;67880;46.082;18.234;2023-12-28T01:29:42;100519.84;;;4.88;96.30
78584;BME280;67880;46.082;18.234;2023-12-28T01:30:14;100518.88;;;4.89;96.22
78584;BME280;67880;46.082;18.234;2023-12-28T01:30:47;100526.34;;;4.84;96.54
78584;BME280;67880;46.082;18.234;2023-12-28T01:31:19;100519.22;;;4.84;96.19
78584;BME280;67880;46.082;18.234;2023-12-28T01:31:51;100527.94;;;4.86;96.73
78584;BME280;67880;46.082;18.234;2023-12-28T01:32:23;100524.31;;;4.87;96.73
78584;BME280;67880;46.082;18.234;2023-12-28T01:32:55;100519.94;;;4.86;95.98
78584;BME280;67880;46.082;18.234;2023-12-28T01:33:27;100520.69;;;4.88;96.29
78584;BME280;67880;46.082;18.234;2023-12-28T01:33:59;100517.28;;;4.86;96.37
78584;BME280;67880;46.082;18.234;2023-12-28T01:34:31;100518.25;;;4.85;96.01
78584;BME280;67880;46.082;18.234;2023-12-28T01:35:03;100530.81;;;4.83;96.55
78584;BME280;67880;46.082;18.234;2023-12-28T01:35:36;100524.59;;;4.83;96.16
78584;BME280;67880;46.082;18.234;2023-12-28T01:36:16;100520.25;;;4.82;96.48
78584;BME280;67880;46.082;18.234;2023-12-28T01:36:48;100522.81;;;4.83;96.49
78584;BME280;67880;46.082;18.234;2023-12-28T01:37:20;100522.72;;;4.85;96.60
78584;BME280;67880;46.082;18.234;2023-12-28T01:37:52;100523.56;;;4.85;96.04
78584;BME280;67880;46.082;18.234;2023-12-28T01:38:25;100524.53;;;4.84;96.09
78584;BME280;67880;46.082;18.234;2023-12-28T01:38:56;100522.16;;;4.80;95.94
78584;BME280;67880;46.082;18.234;2023-12-28T01:39:28;100522.91;;;4.82;96.62
78584;BME280;67880;46.082;18.234;2023-12-28T01:40:01;100523.88;;;4.81;96.45
78584;BME280;67880;46.082;18.234;2023-12-28T01:40:33;100524.59;;;4.83;96.57
78584;BME280;67880;46.082;18.234;2023-12-28T01:41:05;100528.22;;;4.82;96.84
78584;BME280;67880;46.082;18.234;2023-12-28T01:41:37;100531.72;;;4.82;96.31
78584;BME280;67880;46.082;18.234;2023-12-28T01:42:09;100531.66;;;4.84;96.29
78584;BME280;67880;46.082;18.234;2023-12-28T01:42:41;100521.22;;;4.81;96.37
78584;BME280;67880;46.082;18.234;2023-12-28T01:43:13;100527.38;;;4.81;96.69
78584;BME280;67880;46.082;18.234;2023-12-28T01:43:45;100521.41;;;4.78;96.33
78584;BME280;67880;46.082;18.234;2023-12-28T01:44:17;100525.88;;;4.77;96.76
78584;BME280;67880;46.082;18.234;2023-12-28T01:44:49;100529.59;;;4.75;96.95
78584;BME280;67880;46.082;18.234;2023-12-28T01:45:21;100528.94;;;4.71;96.73
78584;BME280;67880;46.082;18.234;2023-12-28T01:45:53;100522.56;;;4.74;96.78
78584;BME280;67880;46.082;18.234;2023-12-28T01:46:25;100532.34;;;4.73;96.73
78584;BME280;67880;46.082;18.234;2023-12-28T01:46:58;100528.75;;;4.74;96.99
78584;BME280;67880;46.082;18.234;2023-12-28T01:47:33;100526.06;;;4.74;96.60
78584;BME280;67880;46.082;18.234;2023-12-28T01:48:06;100526.94;;;4.75;96.63
78584;BME280;67880;46.082;18.234;2023-12-28T01:48:39;100527.88;;;4.74;96.81
78584;BME280;67880;46.082;18.234;2023-12-28T01:49:12;100525.22;;;4.74;97.65
78584;BME280;67880;46.082;18.234;2023-12-28T01:49:46;100517.34;;;4.72;96.99
78584;BME280;67880;46.082;18.234;2023-12-28T01:50:18;100535.13;;;4.72;96.79
78584;BME280;67880;46.082;18.234;2023-12-28T01:50:52;100528.00;;;4.72;97.03
78584;BME280;67880;46.082;18.234;2023-12-28T01:51:24;100528.28;;;4.68;97.38
78584;BME280;67880;46.082;18.234;2023-12-28T01:51:56;100525.63;;;4.68;97.53
78584;BME280;67880;46.082;18.234;2023-12-28T01:52:29;100529.25;;;4.67;97.24
78584;BME280;67880;46.082;18.234;2023-12-28T01:53:03;100531.91;;;4.67;97.70
78584;BME280;67880;46.082;18.234;2023-12-28T01:53:36;100521.44;;;4.63;97.74
78584;BME280;67880;46.082;18.234;2023-12-28T01:54:08;100527.53;;;4.66;97.48
78584;BME280;67880;46.082;18.234;2023-12-28T01:54:41;100535.41;;;4.67;97.20
78584;BME280;67880;46.082;18.234;2023-12-28T01:55:13;100525.72;;;4.66;97.53
78584;BME280;67880;46.082;18.234;2023-12-28T01:55:46;100526.59;;;4.67;97.53
78584;BME280;67880;46.082;18.234;2023-12-28T01:56:19;100525.63;;;4.68;97.50
78584;BME280;67880;46.082;18.234;2023-12-28T01:56:52;100525.53;;;4.69;97.92
78584;BME280;67880;46.082;18.234;2023-12-28T01:57:24;100517.66;;;4.68;97.81
78584;BME280;67880;46.082;18.234;2023-12-28T01:57:57;100516.78;;;4.67;97.76
78584;BME280;67880;46.082;18.234;2023-12-28T01:58:33;100516.91;;;4.66;97.77
78584;BME280;67880;46.082;18.234;2023-12-28T01:59:07;100516.13;;;4.63;97.92
78584;BME280;67880;46.082;18.234;2023-12-28T01:59:40;100516.34;;;4.60;97.89
78584;BME280;67880;46.082;18.234;2023-12-28T02:00:12;100513.47;;;4.63;98.36
78584;BME280;67880;46.082;18.234;2023-12-28T02:00:45;100513.41;;;4.65;98.36
78584;BME280;67880;46.082;18.234;2023-12-28T02:01:19;100517.75;;;4.66;98.46
78584;BME280;67880;46.082;18.234;2023-12-28T02:01:52;100504.47;;;4.66;98.10
78584;BME280;67880;46.082;18.234;2023-12-28T02:02:24;100509.78;;;4.66;98.60
78584;BME280;67880;46.082;18.234;2023-12-28T02:02:56;100509.03;;;4.64;98.67
78584;BME280;67880;46.082;18.234;2023-12-28T02:03:28;100514.25;;;4.66;98.37
78584;BME280;67880;46.082;18.234;2023-12-28T02:04:01;100511.59;;;4.66;98.68
78584;BME280;67880;46.082;18.234;2023-12-28T02:04:35;100509.22;;;4.61;98.56
78584;BME280;67880;46.082;18.234;2023-12-28T02:05:10;100510.34;;;4.57;98.65
78584;BME280;67880;46.082;18.234;2023-12-28T02:05:42;100506.56;;;4.61;98.15
78584;BME280;67880;46.082;18.234;2023-12-28T02:06:15;100504.66;;;4.63;98.34
78584;BME280;67880;46.082;18.234;2023-12-28T02:06:51;100509.22;;;4.61;98.20
78584;BME280;67880;46.082;18.234;2023-12-28T02:07:25;100500.50;;;4.59;98.59
78584;BME280;67880;46.082;18.234;2023-12-28T02:07:57;100503.06;;;4.60;98.70
78584;BME280;67880;46.082;18.234;2023-12-28T02:08:29;100500.09;;;4.65;98.46
78584;BME280;67880;46.082;18.234;2023-12-28T02:09:01;100499.13;;;4.66;98.64
78584;BME280;67880;46.082;18.234;2023-12-28T02:09:33;100497.22;;;4.68;98.69
78584;BME280;67880;46.082;18.234;2023-12-28T02:10:07;100492.75;;;4.69;98.78
78584;BME280;67880;46.082;18.234;2023-12-28T02:10:39;100496.19;;;4.71;98.96
78584;BME280;67880;46.082;18.234;2023-12-28T02:11:12;100503.19;;;4.72;98.84
78584;BME280;67880;46.082;18.234;2023-12-28T02:11:44;100494.44;;;4.70;98.52
78584;BME280;67880;46.082;18.234;2023-12-28T02:12:16;100498.06;;;4.69;98.44
78584;BME280;67880;46.082;18.234;2023-12-28T02:12:48;100502.44;;;4.70;98.69
78584;BME280;67880;46.082;18.234;2023-12-28T02:13:22;100493.72;;;4.68;98.69
78584;BME280;67880;46.082;18.234;2023-12-28T02:13:54;100495.75;;;4.64;98.12
78584;BME280;67880;46.082;18.234;2023-12-28T02:14:26;100486.03;;;4.63;98.71
78584;BME280;67880;46.082;18.234;2023-12-28T02:14:59;100494.97;;;4.62;98.38
78584;BME280;67880;46.082;18.234;2023-12-28T02:15:31;100488.06;;;4.59;98.89
78584;BME280;67880;46.082;18.234;2023-12-28T02:16:11;100489.66;;;4.62;98.59
78584;BME280;67880;46.082;18.234;2023-12-28T02:16:52;100488.78;;;4.61;98.71
78584;BME280;67880;46.082;18.234;2023-12-28T02:18:12;100487.66;;;4.66;98.48
78584;BME280;67880;46.082;18.234;2023-12-28T02:18:52;100486.88;;;4.63;98.71
78584;BME280;67880;46.082;18.234;2023-12-28T02:19:40;100481.38;;;4.67;98.97
78584;BME280;67880;46.082;18.234;2023-12-28T02:20:15;100482.53;;;4.62;99.03
78584;BME280;67880;46.082;18.234;2023-12-28T02:20:48;100486.88;;;4.63;98.96
78584;BME280;67880;46.082;18.234;2023-12-28T02:21:21;100482.34;;;4.66;98.58
78584;BME280;67880;46.082;18.234;2023-12-28T02:21:54;100478.91;;;4.63;99.02
78584;BME280;67880;46.082;18.234;2023-12-28T02:22:27;100478.16;;;4.61;98.68
78584;BME280;67880;46.082;18.234;2023-12-28T02:23:01;100477.13;;;4.64;99.20
78584;BME280;67880;46.082;18.234;2023-12-28T02:23:33;100477.19;;;4.62;98.75
78584;BME280;67880;46.082;18.234;2023-12-28T02:24:05;100473.91;;;4.59;99.30
78584;BME280;67880;46.082;18.234;2023-12-28T02:25:25;100479.63;;;4.53;99.15
78584;BME280;67880;46.082;18.234;2023-12-28T02:25:57;100475.34;;;4.50;99.17
78584;BME280;67880;46.082;18.234;2023-12-28T02:26:29;100469.28;;;4.48;99.20
78584;BME280;67880;46.082;18.234;2023-12-28T02:27:01;100476.00;;;4.54;99.35
78584;BME280;67880;46.082;18.234;2023-12-28T02:27:41;100474.09;;;4.56;99.32
78584;BME280;67880;46.082;18.234;2023-12-28T02:28:13;100476.75;;;4.56;99.07
78584;BME280;67880;46.082;18.234;2023-12-28T02:28:45;100475.06;;;4.55;99.34
78584;BME280;67880;46.082;18.234;2023-12-28T02:29:18;100473.34;;;4.54;99.21
78584;BME280;67880;46.082;18.234;2023-12-28T02:29:50;100475.16;;;4.53;99.53
78584;BME280;67880;46.082;18.234;2023-12-28T02:30:23;100472.78;;;4.49;99.10
78584;BME280;67880;46.082;18.234;2023-12-28T02:30:58;100470.13;;;4.49;98.86
78584;BME280;67880;46.082;18.234;2023-12-28T02:31:48;100466.44;;;4.51;99.46
78584;BME280;67880;46.082;18.234;2023-12-28T02:32:39;100461.97;;;4.52;99.36
78584;BME280;67880;46.082;18.234;2023-12-28T02:33:48;100466.44;;;4.51;100.00
78584;BME280;67880;46.082;18.234;2023-12-28T02:34:34;100462.66;;;4.41;100.00
78584;BME280;67880;46.082;18.234;2023-12-28T02:35:33;100458.88;;;4.45;100.00
78584;BME280;67880;46.082;18.234;2023-12-28T02:36:11;100459.72;;;4.46;99.97
78584;BME280;67880;46.082;18.234;2023-12-28T02:36:45;100467.13;;;4.41;99.96
78584;BME280;67880;46.082;18.234;2023-12-28T02:37:20;100458.72;;;4.34;100.00
78584;BME280;67880;46.082;18.234;2023-12-28T02:37:56;100454.41;;;4.31;100.00
78584;BME280;67880;46.082;18.234;2023-12-28T02:38:32;100457.34;;;4.41;100.00
78584;BME280;67880;46.082;18.234;2023-12-28T02:39:09;100456.38;;;4.42;100.00
78584;BME280;67880;46.082;18.234;2023-12-28T02:39:45;100458.09;;;4.43;100.00
78584;BME280;67880;46.082;18.234;2023-12-28T02:40:18;100458.00;;;4.45;100.00
78584;BME280;67880;46.082;18.234;2023-12-28T02:40:52;100461.59;;;4.44;100.00
78584;BME280;67880;46.082;18.234;2023-12-28T02:41:25;100462.88;;;4.38;100.00
78584;BME280;67880;46.082;18.234;2023-12-28T02:41:58;100467.44;;;4.36;100.00
78584;BME280;67880;46.082;18.234;2023-12-28T02:42:30;100461.25;;;4.35;100.00
78584;BME280;67880;46.082;18.234;2023-12-28T02:43:03;100455.66;;;4.40;100.00
78584;BME280;67880;46.082;18.234;2023-12-28T02:43:35;100461.72;;;4.42;100.00
78584;BME280;67880;46.082;18.234;2023-12-28T02:44:07;100460.13;;;4.40;100.00
78584;BME280;67880;46.082;18.234;2023-12-28T02:44:39;100469.97;;;4.38;100.00
78584;BME280;67880;46.082;18.234;2023-12-28T02:45:10;100464.66;;;4.38;100.00
78584;BME280;67880;46.082;18.234;2023-12-28T02:45:43;100461.06;;;4.39;100.00
78584;BME280;67880;46.082;18.234;2023-12-28T02:46:14;100464.47;;;4.41;100.00
78584;BME280;67880;46.082;18.234;2023-12-28T02:46:46;100462.66;;;4.41;100.00
78584;BME280;67880;46.082;18.234;2023-12-28T02:47:18;100468.59;;;4.32;100.00
78584;BME280;67880;46.082;18.234;2023-12-28T02:47:50;100462.63;;;4.28;100.00
78584;BME280;67880;46.082;18.234;2023-12-28T02:48:23;100457.00;;;4.33;100.00
78584;BME280;67880;46.082;18.234;2023-12-28T02:48:55;100450.50;;;4.37;100.00
78584;BME280;67880;46.082;18.234;2023-12-28T02:49:29;100458.31;;;4.40;100.00
78584;BME280;67880;46.082;18.234;2023-12-28T02:50:01;100461.06;;;4.39;100.00
78584;BME280;67880;46.082;18.234;2023-12-28T02:50:34;100456.50;;;4.41;100.00
78584;BME280;67880;46.082;18.234;2023-12-28T02:51:06;100455.50;;;4.29;100.00
78584;BME280;67880;46.082;18.234;2023-12-28T02:51:38;100464.72;;;4.23;100.00
78584;BME280;67880;46.082;18.234;2023-12-28T02:52:10;100457.13;;;4.17;100.00
78584;BME280;67880;46.082;18.234;2023-12-28T02:52:42;100460.63;;;4.18;100.00
78584;BME280;67880;46.082;18.234;2023-12-28T02:53:14;100458.53;;;4.23;100.00
78584;BME280;67880;46.082;18.234;2023-12-28T02:53:46;100451.97;;;4.28;100.00
78584;BME280;67880;46.082;18.234;2023-12-28T02:54:18;100444.75;;;4.30;100.00
78584;BME280;67880;46.082;18.234;2023-12-28T02:54:50;100452.53;;;4.33;100.00
78584;BME280;67880;46.082;18.234;2023-12-28T02:55:23;100455.50;;;4.29;100.00
78584;BME280;67880;46.082;18.234;2023-12-28T02:55:55;100461.75;;;4.28;100.00
78584;BME280;67880;46.082;18.234;2023-12-28T02:56:27;100455.50;;;4.29;100.00
78584;BME280;67880;46.082;18.234;2023-12-28T02:56:59;100454.41;;;4.31;100.00
78584;BME280;67880;46.082;18.234;2023-12-28T02:57:31;100451.25;;;4.26;100.00